createdAt,value
2019-05-18T07:06:44.035Z,99.90
2019-05-18T07:09:14.593Z,99.90
2019-05-18T07:11:44.865Z,99.90
2019-05-18T07:14:25.393Z,99.90
2019-05-18T07:16:48.213Z,99.90
2019-05-18T07:19:18.561Z,99.90
2019-05-18T07:21:48.816Z,99.90
2019-05-18T07:24:18.971Z,99.90
2019-05-18T07:26:49.090Z,99.90
2019-05-18T07:29:19.109Z,99.90
2019-05-18T07:31:49.266Z,99.90
2019-05-18T07:34:19.299Z,99.90
2019-05-18T07:36:49.439Z,99.90
2019-05-18T07:39:19.619Z,99.90
2019-05-18T07:41:49.581Z,99.90
2019-05-18T07:44:19.911Z,99.90
2019-05-18T07:46:50.007Z,99.90
2019-05-18T07:49:20.155Z,99.90
2019-05-18T07:51:50.168Z,99.90
2019-05-18T07:54:20.229Z,99.90
2019-05-18T07:56:50.284Z,99.90
2019-05-18T07:59:20.338Z,99.90
2019-05-18T08:01:50.368Z,99.90
2019-05-18T08:04:20.592Z,99.90
2019-05-18T08:06:50.719Z,99.90
2019-05-18T08:09:20.919Z,99.90
2019-05-18T08:11:51.015Z,99.90
2019-05-18T08:14:22.322Z,99.90
2019-05-18T08:16:52.404Z,99.90
2019-05-18T08:19:22.411Z,99.90
2019-05-18T08:21:53.702Z,99.90
2019-05-18T08:24:23.952Z,99.90
2019-05-18T08:26:54.063Z,99.90
2019-05-18T08:29:24.222Z,99.90
2019-05-18T08:31:54.247Z,99.90
2019-05-18T08:34:24.404Z,99.90
2019-05-18T08:36:54.648Z,99.90
2019-05-18T08:39:29.100Z,99.90
2019-05-18T08:41:59.234Z,99.90
2019-05-18T08:44:29.640Z,99.90
2019-05-18T08:47:00.168Z,99.90
2019-05-18T08:49:30.537Z,99.90
2019-05-18T08:52:08.354Z,99.90
2019-05-18T08:54:37.213Z,99.90
2019-05-18T08:57:08.423Z,99.90
2019-05-18T08:59:40.009Z,99.90
2019-05-18T09:02:10.564Z,99.90
2019-05-18T09:04:40.782Z,99.90
2019-05-18T09:07:12.061Z,99.90
2019-05-18T09:09:42.057Z,99.90
2019-05-18T09:12:19.068Z,99.90
2019-05-18T09:14:56.310Z,99.90
2019-05-18T09:17:35.443Z,99.90
2019-05-18T09:20:18.430Z,99.90
2019-05-18T09:22:51.394Z,99.90
2019-05-18T09:25:21.587Z,99.90
2019-05-18T09:27:51.652Z,99.90
2019-05-18T09:30:22.347Z,99.90
2019-05-18T09:32:52.942Z,99.90
2019-05-18T09:35:27.867Z,99.90
2019-05-18T09:37:58.107Z,99.90
2019-05-18T09:40:28.423Z,99.90
2019-05-18T09:42:58.618Z,99.90
2019-05-18T09:45:28.861Z,99.90
2019-05-18T09:48:02.184Z,99.90
2019-05-18T09:50:36.271Z,99.90
2019-05-18T09:53:06.585Z,99.90
2019-05-18T09:55:36.821Z,99.90
2019-05-18T09:58:07.218Z,99.90
2019-05-18T10:00:39.076Z,99.90
2019-05-18T10:03:10.555Z,99.90
2019-05-18T10:05:40.809Z,99.90
2019-05-18T10:08:11.145Z,99.90
2019-05-18T10:10:41.316Z,99.90
2019-05-18T10:13:13.001Z,99.90
2019-05-18T10:15:43.286Z,99.90
2019-05-18T10:18:13.517Z,99.90
2019-05-18T10:20:43.747Z,99.90
2019-05-18T10:23:14.119Z,99.90
2019-05-18T10:25:44.437Z,99.90
2019-05-18T10:28:16.912Z,99.90
2019-05-18T10:30:47.117Z,99.90
2019-05-18T10:33:17.318Z,99.90
2019-05-18T10:35:47.350Z,99.90
2019-05-18T10:38:18.015Z,99.90
2019-05-18T10:40:48.236Z,99.90
2019-05-18T10:43:18.325Z,99.90
2019-05-18T10:45:48.478Z,99.90
2019-05-18T10:48:18.601Z,99.90
2019-05-18T10:50:48.919Z,99.90
2019-05-18T10:53:28.370Z,99.90
2019-05-18T10:55:56.140Z,99.90
2019-05-18T10:58:30.407Z,99.90
2019-05-18T11:01:06.213Z,99.90
2019-05-18T11:03:36.377Z,99.90
2019-05-18T11:06:13.459Z,99.90
2019-05-18T11:08:59.359Z,99.90
2019-05-18T11:11:29.636Z,99.90
2019-05-18T11:14:02.324Z,99.90
2019-05-18T11:16:33.551Z,99.90
2019-05-18T11:19:03.788Z,99.90
2019-05-18T11:21:33.958Z,99.90
2019-05-18T11:24:04.325Z,99.90
2019-05-18T11:26:34.601Z,99.90
2019-05-18T11:29:04.837Z,99.90
2019-05-18T11:31:35.049Z,99.90
2019-05-18T11:34:05.149Z,99.90
2019-05-18T11:36:55.365Z,99.90
2019-05-18T11:39:25.411Z,99.90
2019-05-18T11:41:55.488Z,99.90
2019-05-18T11:44:25.687Z,99.90
2019-05-18T11:46:55.691Z,99.90
2019-05-18T11:49:28.964Z,99.90
2019-05-18T11:51:57.804Z,98.70
2019-05-18T11:54:27.810Z,98.40
2019-05-18T11:56:57.813Z,99.60
2019-05-18T11:59:28.081Z,98.50
2019-05-18T12:01:58.162Z,97.70
2019-05-18T12:04:29.543Z,97.30
2019-05-18T12:06:59.576Z,98.10
2019-05-18T12:09:29.824Z,99.10
2019-05-18T12:11:59.949Z,99.00
2019-05-18T12:14:30.125Z,97.40
2019-05-18T12:17:00.261Z,97.40
2019-05-18T12:19:30.319Z,97.30
2019-05-18T12:22:00.540Z,98.30
2019-05-18T12:24:30.659Z,97.20
2019-05-18T12:27:00.830Z,96.60
2019-05-18T12:29:34.093Z,97.40
2019-05-18T12:32:04.203Z,96.70
2019-05-18T12:34:34.745Z,95.60
2019-05-18T12:37:04.996Z,95.30
2019-05-18T12:39:35.188Z,95.60
2019-05-18T12:42:07.582Z,93.90
2019-05-18T12:44:37.314Z,94.90
2019-05-18T12:47:07.589Z,93.40
2019-05-18T12:49:38.910Z,93.20
2019-05-18T12:52:09.324Z,92.70
2019-05-18T12:54:46.380Z,93.60
2019-05-18T12:57:13.805Z,93.30
2019-05-18T12:59:43.826Z,92.90
2019-05-18T13:02:14.092Z,92.90
2019-05-18T13:04:44.514Z,93.40
2019-05-18T13:07:14.811Z,92.00
2019-05-18T13:09:45.082Z,92.70
2019-05-18T13:12:15.341Z,93.50
2019-05-18T13:14:45.484Z,93.00
2019-05-18T13:17:15.642Z,94.20
2019-05-18T13:19:45.946Z,93.20
2019-05-18T13:22:16.134Z,94.40
2019-05-18T13:24:46.283Z,94.90
2019-05-18T13:27:16.471Z,94.90
2019-05-18T13:29:46.593Z,94.30
2019-05-18T13:32:16.844Z,94.60
2019-05-18T13:34:46.998Z,93.50
2019-05-18T13:37:20.888Z,92.10
2019-05-18T13:39:52.036Z,92.90
2019-05-18T13:42:22.143Z,93.40
2019-05-18T13:44:52.239Z,92.90
2019-05-18T13:47:22.478Z,92.90
2019-05-18T13:49:52.555Z,93.10
2019-05-18T13:52:23.606Z,92.10
2019-05-18T13:55:03.533Z,92.30
2019-05-18T13:57:25.534Z,93.00
2019-05-18T13:59:56.753Z,92.30
2019-05-18T14:02:27.086Z,92.60
2019-05-18T14:04:57.350Z,92.60
2019-05-18T14:07:27.471Z,91.40
2019-05-18T14:09:57.788Z,91.80
2019-05-18T14:12:29.086Z,92.20
2019-05-18T14:14:59.255Z,92.50
2019-05-18T14:17:29.322Z,92.00
2019-05-18T14:19:59.468Z,91.50
2019-05-18T14:22:29.755Z,91.00
2019-05-18T14:25:01.266Z,88.90
2019-05-18T14:27:31.294Z,89.70
2019-05-18T14:30:01.451Z,90.10
2019-05-18T14:32:31.726Z,89.50
2019-05-18T14:35:01.877Z,91.60
2019-05-18T14:37:31.997Z,91.40
2019-05-18T14:40:02.032Z,90.90
2019-05-18T14:42:32.123Z,89.70
2019-05-18T14:45:03.231Z,90.90
2019-05-18T14:47:33.486Z,89.00
2019-05-18T14:50:05.366Z,88.90
2019-05-18T14:52:36.597Z,88.30
2019-05-18T14:55:06.847Z,89.80
2019-05-18T14:57:52.820Z,89.50
2019-05-18T15:00:23.189Z,87.30
2019-05-18T15:02:53.384Z,82.30
2019-05-18T15:05:23.733Z,81.60
2019-05-18T15:07:53.927Z,82.60
2019-05-18T15:10:25.094Z,84.20
2019-05-18T15:12:55.226Z,86.70
2019-05-18T15:15:25.431Z,86.50
2019-05-18T15:17:55.857Z,88.90
2019-05-18T15:20:26.044Z,87.80
2019-05-18T15:22:56.133Z,89.60
2019-05-18T15:25:26.359Z,90.30
2019-05-18T15:27:56.488Z,90.50
2019-05-18T15:30:26.773Z,90.60
2019-05-18T15:32:56.836Z,90.70
2019-05-18T15:35:26.969Z,91.20
2019-05-18T15:37:57.263Z,91.60
2019-05-18T15:40:27.442Z,92.00
2019-05-18T15:42:57.634Z,91.70
2019-05-18T15:45:27.563Z,92.00
2019-05-18T15:47:57.552Z,91.60
2019-05-18T15:50:28.075Z,91.30
2019-05-18T15:52:58.216Z,91.20
2019-05-18T15:55:28.831Z,90.50
2019-05-18T15:57:58.978Z,87.70
2019-05-18T16:00:29.202Z,82.70
2019-05-18T16:02:59.391Z,82.00
2019-05-18T16:05:29.620Z,82.20
2019-05-18T16:07:59.789Z,84.50
2019-05-18T16:10:30.073Z,86.50
2019-05-18T16:13:00.098Z,88.30
2019-05-18T16:15:30.213Z,88.50
2019-05-18T16:18:00.307Z,87.00
2019-05-18T16:20:30.548Z,86.10
2019-05-18T16:23:00.688Z,85.50
2019-05-18T16:25:30.885Z,86.60
2019-05-18T16:28:01.181Z,86.80
2019-05-18T16:30:31.333Z,88.30
2019-05-18T16:33:01.633Z,87.60
2019-05-18T16:35:32.294Z,89.30
2019-05-18T16:38:02.392Z,89.90
2019-05-18T16:40:32.459Z,90.80
2019-05-18T16:43:02.997Z,91.50
2019-05-18T16:45:33.114Z,91.90
2019-05-18T16:48:03.283Z,92.30
2019-05-18T16:50:33.473Z,92.70
2019-05-18T16:53:03.718Z,93.20
2019-05-18T16:55:34.235Z,93.40
2019-05-18T16:58:04.437Z,93.60
2019-05-18T17:00:34.572Z,93.80
2019-05-18T17:03:04.742Z,94.00
2019-05-18T17:05:35.002Z,94.60
2019-05-18T17:08:05.309Z,94.90
2019-05-18T17:10:35.535Z,95.00
2019-05-18T17:13:05.723Z,95.40
2019-05-18T17:15:35.931Z,95.70
2019-05-18T17:18:06.192Z,95.70
2019-05-18T17:20:36.256Z,95.90
2019-05-18T17:23:06.273Z,96.30
2019-05-18T17:25:36.444Z,96.60
2019-05-18T17:28:06.751Z,97.00
2019-05-18T17:30:36.972Z,97.40
2019-05-18T17:33:07.136Z,97.50
2019-05-18T17:35:37.215Z,97.90
2019-05-18T17:38:07.389Z,98.10
2019-05-18T17:40:37.573Z,98.40
2019-05-18T17:43:07.705Z,98.60
2019-05-18T17:45:37.843Z,98.80
2019-05-18T17:48:08.095Z,99.20
2019-05-18T17:50:38.205Z,99.60
2019-05-18T17:53:08.416Z,99.90
2019-05-18T17:55:38.453Z,99.90
2019-05-18T17:58:09.689Z,99.90
2019-05-18T18:00:39.873Z,99.90
2019-05-18T18:03:10.011Z,99.90
2019-05-18T18:05:40.375Z,99.90
2019-05-18T18:08:10.661Z,99.90
2019-05-18T18:10:40.929Z,99.90
2019-05-18T18:13:11.162Z,99.90
2019-05-18T18:15:41.657Z,99.90
2019-05-18T18:18:11.876Z,99.90
2019-05-18T18:20:42.120Z,99.90
2019-05-18T18:23:12.278Z,99.90
2019-05-18T18:25:42.315Z,99.90
2019-05-18T18:28:12.361Z,99.90
2019-05-18T18:30:42.487Z,99.90
2019-05-18T18:33:12.766Z,99.90
2019-05-18T18:35:42.874Z,99.90
2019-05-18T18:38:13.154Z,99.90
2019-05-18T18:40:45.132Z,99.90
2019-05-18T18:43:20.462Z,99.90
2019-05-18T18:45:50.402Z,99.90
2019-05-18T18:48:20.493Z,99.90
2019-05-18T18:50:50.694Z,99.90
2019-05-18T18:53:20.973Z,99.90
2019-05-18T18:55:52.433Z,99.90
2019-05-18T18:58:22.537Z,99.90
2019-05-18T19:00:52.679Z,99.90
2019-05-18T19:03:24.197Z,99.90
2019-05-18T19:05:54.282Z,99.90
2019-05-18T19:08:26.115Z,99.90
2019-05-18T19:11:02.385Z,99.90
2019-05-18T19:13:45.737Z,99.90
2019-05-18T19:16:15.721Z,99.90
2019-05-18T19:18:45.717Z,99.90
2019-05-18T19:21:17.474Z,99.90
2019-05-18T19:23:52.022Z,99.90
2019-05-18T19:26:31.444Z,99.90
2019-05-18T19:29:05.190Z,99.90
2019-05-18T19:31:35.684Z,99.90
2019-05-18T19:34:05.895Z,99.90
2019-05-18T19:36:36.596Z,99.90
2019-05-18T19:39:08.265Z,99.90
2019-05-18T19:41:39.000Z,99.90
2019-05-18T19:44:09.487Z,99.90
2019-05-18T19:46:39.741Z,99.90
2019-05-18T19:49:11.871Z,99.90
2019-05-18T19:51:44.174Z,99.90
2019-05-18T19:54:15.113Z,99.90
2019-05-18T19:56:46.068Z,99.90
2019-05-18T19:59:16.645Z,99.90
2019-05-18T20:01:46.866Z,99.90
2019-05-18T20:04:18.954Z,99.90
2019-05-18T20:06:49.074Z,99.90
2019-05-18T20:09:19.344Z,99.90
2019-05-18T20:11:49.535Z,99.90
2019-05-18T20:14:20.991Z,99.90
2019-05-18T20:16:52.205Z,99.90
2019-05-18T20:19:37.915Z,99.90
2019-05-18T20:21:54.423Z,99.90
2019-05-18T20:24:24.704Z,99.90
2019-05-18T20:26:54.842Z,99.90
2019-05-18T20:29:25.046Z,99.90
2019-05-18T20:31:57.041Z,99.90
2019-05-18T20:34:27.279Z,99.90
2019-05-18T20:36:57.470Z,99.90
2019-05-18T20:39:28.079Z,99.90
2019-05-18T20:41:58.151Z,99.90
2019-05-18T20:44:28.253Z,99.90
2019-05-18T20:46:58.500Z,99.90
2019-05-18T20:49:28.711Z,99.90
2019-05-18T20:51:58.853Z,99.90
2019-05-18T20:54:29.039Z,99.90
2019-05-18T20:57:00.511Z,99.90
2019-05-18T20:59:30.951Z,99.90
2019-05-18T21:02:01.116Z,99.90
2019-05-18T21:04:32.510Z,99.90
2019-05-18T21:07:05.786Z,99.90
2019-05-18T21:09:35.978Z,99.90
2019-05-18T21:12:07.459Z,99.90
2019-05-18T21:14:37.841Z,99.90
2019-05-18T21:17:08.432Z,99.90
2019-05-18T21:19:38.538Z,99.90
2019-05-18T21:22:08.790Z,99.90
2019-05-18T21:24:38.880Z,99.90
2019-05-18T21:27:08.883Z,99.90
2019-05-18T21:29:39.173Z,99.90
2019-05-18T21:32:09.326Z,99.90
2019-05-18T21:34:39.554Z,99.90
2019-05-18T21:37:09.739Z,99.90
2019-05-18T21:39:39.830Z,99.90
2019-05-18T21:42:09.942Z,99.90
2019-05-18T21:44:40.248Z,99.90
2019-05-18T21:47:10.278Z,99.90
2019-05-18T21:49:40.574Z,99.90
2019-05-18T21:52:10.738Z,99.90
2019-05-18T21:54:40.907Z,99.90
2019-05-18T21:57:11.034Z,99.90
2019-05-18T21:59:41.270Z,99.90
2019-05-18T22:02:11.565Z,99.90
2019-05-18T22:04:44.498Z,99.90
2019-05-18T22:07:14.752Z,99.90
2019-05-18T22:09:45.003Z,99.90
2019-05-18T22:12:15.278Z,99.90
2019-05-18T22:14:45.400Z,99.90
2019-05-18T22:17:15.571Z,99.90
2019-05-18T22:19:45.618Z,99.90
2019-05-18T22:22:15.855Z,99.90
2019-05-18T22:24:45.873Z,99.90
2019-05-18T22:27:16.098Z,99.90
2019-05-18T22:29:46.313Z,99.90
2019-05-18T22:32:16.528Z,99.90
2019-05-18T22:34:46.717Z,99.90
2019-05-18T22:37:16.925Z,99.90
2019-05-18T22:39:47.043Z,99.90
2019-05-18T22:42:17.165Z,99.90
2019-05-18T22:44:47.455Z,99.90
2019-05-18T22:47:17.823Z,99.90
2019-05-18T22:49:48.006Z,99.90
2019-05-18T22:52:19.446Z,99.90
2019-05-18T22:54:50.912Z,99.90
2019-05-18T22:57:23.441Z,99.90
2019-05-18T22:59:54.645Z,99.90
2019-05-18T23:02:24.726Z,99.90
2019-05-18T23:04:54.852Z,99.90
2019-05-18T23:07:24.918Z,99.90
2019-05-18T23:09:54.927Z,99.90
2019-05-18T23:12:25.202Z,99.90
2019-05-18T23:14:55.306Z,99.90
2019-05-18T23:17:25.445Z,99.90
2019-05-18T23:19:55.587Z,99.90
2019-05-18T23:22:25.806Z,99.90
2019-05-18T23:24:55.959Z,99.90
2019-05-18T23:27:25.951Z,99.90
2019-05-18T23:29:56.151Z,99.90
2019-05-18T23:32:26.293Z,99.90
2019-05-18T23:34:56.297Z,99.90
2019-05-18T23:37:26.564Z,99.90
2019-05-18T23:39:56.846Z,99.90
2019-05-18T23:42:26.950Z,99.90
2019-05-18T23:44:57.134Z,99.90
2019-05-18T23:47:27.271Z,99.90
2019-05-18T23:49:57.290Z,99.90
2019-05-18T23:52:28.067Z,99.90
2019-05-18T23:54:58.370Z,99.90
2019-05-18T23:57:28.445Z,99.90
2019-05-18T23:59:58.771Z,99.90
